sensor_id;sensor_type;location;lat;lon;timestamp;temperature;humidity
75927;DHT22;64605;48.296;16.416;2023-05-19T00:00:42;13.30;70.70
75927;DHT22;64605;48.296;16.416;2023-05-19T00:03:10;13.30;70.80
75927;DHT22;64605;48.296;16.416;2023-05-19T00:05:38;13.20;70.70
75927;DHT22;64605;48.296;16.416;2023-05-19T00:08:10;13.30;70.50
75927;DHT22;64605;48.296;16.416;2023-05-19T00:10:36;13.20;70.80
75927;DHT22;64605;48.296;16.416;2023-05-19T00:13:02;13.20;70.70
75927;DHT22;64605;48.296;16.416;2023-05-19T00:15:28;13.20;70.70
75927;DHT22;64605;48.296;16.416;2023-05-19T00:17:54;13.20;70.70
75927;DHT22;64605;48.296;16.416;2023-05-19T00:20:20;13.20;70.80
75927;DHT22;64605;48.296;16.416;2023-05-19T00:22:46;13.20;70.80
75927;DHT22;64605;48.296;16.416;2023-05-19T00:25:12;13.20;71.30
75927;DHT22;64605;48.296;16.416;2023-05-19T00:27:37;13.10;71.30
75927;DHT22;64605;48.296;16.416;2023-05-19T00:30:03;13.10;71.20
75927;DHT22;64605;48.296;16.416;2023-05-19T00:32:29;13.10;72.30
75927;DHT22;64605;48.296;16.416;2023-05-19T00:34:55;13.10;71.10
75927;DHT22;64605;48.296;16.416;2023-05-19T00:37:21;13.10;71.40
75927;DHT22;64605;48.296;16.416;2023-05-19T00:39:47;13.00;71.20
75927;DHT22;64605;48.296;16.416;2023-05-19T00:42:13;13.00;71.40
75927;DHT22;64605;48.296;16.416;2023-05-19T00:44:40;13.00;71.20
75927;DHT22;64605;48.296;16.416;2023-05-19T00:47:09;13.00;71.50
75927;DHT22;64605;48.296;16.416;2023-05-19T00:49:35;12.90;71.50
75927;DHT22;64605;48.296;16.416;2023-05-19T00:52:01;12.90;71.50
75927;DHT22;64605;48.296;16.416;2023-05-19T00:54:30;12.80;71.90
75927;DHT22;64605;48.296;16.416;2023-05-19T00:56:58;12.80;71.70
75927;DHT22;64605;48.296;16.416;2023-05-19T00:59:23;12.70;71.80
75927;DHT22;64605;48.296;16.416;2023-05-19T01:01:49;12.60;71.90
75927;DHT22;64605;48.296;16.416;2023-05-19T01:04:19;12.60;72.20
75927;DHT22;64605;48.296;16.416;2023-05-19T01:06:47;12.50;72.40
75927;DHT22;64605;48.296;16.416;2023-05-19T01:09:14;12.40;72.50
75927;DHT22;64605;48.296;16.416;2023-05-19T01:11:41;12.40;72.60
75927;DHT22;64605;48.296;16.416;2023-05-19T01:14:06;12.30;72.60
75927;DHT22;64605;48.296;16.416;2023-05-19T01:16:47;12.30;72.90
75927;DHT22;64605;48.296;16.416;2023-05-19T01:27:52;12.00;73.70
75927;DHT22;64605;48.296;16.416;2023-05-19T01:30:40;12.00;73.60
75927;DHT22;64605;48.296;16.416;2023-05-19T01:33:09;11.90;73.80
75927;DHT22;64605;48.296;16.416;2023-05-19T01:35:37;11.90;74.00
75927;DHT22;64605;48.296;16.416;2023-05-19T01:38:04;11.80;74.20
75927;DHT22;64605;48.296;16.416;2023-05-19T01:40:33;11.70;74.70
75927;DHT22;64605;48.296;16.416;2023-05-19T01:43:00;11.70;75.00
75927;DHT22;64605;48.296;16.416;2023-05-19T01:45:31;11.70;75.20
75927;DHT22;64605;48.296;16.416;2023-05-19T01:48:00;11.60;75.20
75927;DHT22;64605;48.296;16.416;2023-05-19T01:50:27;11.60;75.50
75927;DHT22;64605;48.296;16.416;2023-05-19T01:52:53;11.60;75.60
75927;DHT22;64605;48.296;16.416;2023-05-19T01:55:19;11.50;75.80
75927;DHT22;64605;48.296;16.416;2023-05-19T02:03:08;11.60;76.30
75927;DHT22;64605;48.296;16.416;2023-05-19T02:10:56;11.70;76.20
75927;DHT22;64605;48.296;16.416;2023-05-19T02:13:23;11.70;76.20
75927;DHT22;64605;48.296;16.416;2023-05-19T02:15:51;11.80;76.30
75927;DHT22;64605;48.296;16.416;2023-05-19T02:18:18;11.80;75.80
75927;DHT22;64605;48.296;16.416;2023-05-19T02:20:44;11.90;75.20
75927;DHT22;64605;48.296;16.416;2023-05-19T02:23:10;11.90;75.10
75927;DHT22;64605;48.296;16.416;2023-05-19T02:25:36;11.90;74.90
75927;DHT22;64605;48.296;16.416;2023-05-19T02:28:01;11.90;74.90
75927;DHT22;64605;48.296;16.416;2023-05-19T02:30:27;11.90;74.70
75927;DHT22;64605;48.296;16.416;2023-05-19T02:32:52;11.90;74.90
75927;DHT22;64605;48.296;16.416;2023-05-19T02:35:19;11.90;74.80
75927;DHT22;64605;48.296;16.416;2023-05-19T02:37:45;12.00;75.40
75927;DHT22;64605;48.296;16.416;2023-05-19T02:40:10;12.00;73.80
75927;DHT22;64605;48.296;16.416;2023-05-19T02:42:36;12.00;74.00
75927;DHT22;64605;48.296;16.416;2023-05-19T02:45:02;11.90;73.70
75927;DHT22;64605;48.296;16.416;2023-05-19T02:47:27;11.80;74.30
75927;DHT22;64605;48.296;16.416;2023-05-19T02:49:53;11.80;74.50
75927;DHT22;64605;48.296;16.416;2023-05-19T02:52:19;11.80;74.30
75927;DHT22;64605;48.296;16.416;2023-05-19T02:54:44;11.80;74.50
75927;DHT22;64605;48.296;16.416;2023-05-19T02:57:10;11.70;74.50
75927;DHT22;64605;48.296;16.416;2023-05-19T02:59:36;11.70;75.90
75927;DHT22;64605;48.296;16.416;2023-05-19T03:02:01;11.70;76.00
75927;DHT22;64605;48.296;16.416;2023-05-19T03:04:28;11.70;75.10
75927;DHT22;64605;48.296;16.416;2023-05-19T03:06:54;11.70;75.20
75927;DHT22;64605;48.296;16.416;2023-05-19T03:09:20;11.70;75.50
75927;DHT22;64605;48.296;16.416;2023-05-19T03:11:45;11.60;75.10
75927;DHT22;64605;48.296;16.416;2023-05-19T03:14:11;11.60;76.80
75927;DHT22;64605;48.296;16.416;2023-05-19T03:16:39;11.60;75.80
75927;DHT22;64605;48.296;16.416;2023-05-19T03:19:06;11.70;75.90
75927;DHT22;64605;48.296;16.416;2023-05-19T03:21:32;11.60;75.60
75927;DHT22;64605;48.296;16.416;2023-05-19T03:23:59;11.50;75.60
75927;DHT22;64605;48.296;16.416;2023-05-19T03:26:25;11.50;76.20
75927;DHT22;64605;48.296;16.416;2023-05-19T03:28:50;11.60;76.30
75927;DHT22;64605;48.296;16.416;2023-05-19T03:31:16;11.70;76.50
75927;DHT22;64605;48.296;16.416;2023-05-19T03:33:41;11.80;76.20
75927;DHT22;64605;48.296;16.416;2023-05-19T03:36:07;11.80;75.80
75927;DHT22;64605;48.296;16.416;2023-05-19T03:38:33;11.90;75.60
75927;DHT22;64605;48.296;16.416;2023-05-19T03:40:58;12.00;75.20
75927;DHT22;64605;48.296;16.416;2023-05-19T03:43:24;12.10;75.30
75927;DHT22;64605;48.296;16.416;2023-05-19T03:45:50;12.20;74.50
75927;DHT22;64605;48.296;16.416;2023-05-19T03:48:15;12.20;73.90
75927;DHT22;64605;48.296;16.416;2023-05-19T03:50:41;12.30;73.80
75927;DHT22;64605;48.296;16.416;2023-05-19T03:53:08;12.40;73.60
75927;DHT22;64605;48.296;16.416;2023-05-19T03:55:34;12.50;73.20
75927;DHT22;64605;48.296;16.416;2023-05-19T03:58:01;12.50;72.80
75927;DHT22;64605;48.296;16.416;2023-05-19T04:00:27;12.60;72.70
75927;DHT22;64605;48.296;16.416;2023-05-19T04:02:53;12.70;72.60
75927;DHT22;64605;48.296;16.416;2023-05-19T04:05:18;12.80;71.90
75927;DHT22;64605;48.296;16.416;2023-05-19T04:07:44;12.80;71.00
75927;DHT22;64605;48.296;16.416;2023-05-19T04:10:11;12.90;71.70
75927;DHT22;64605;48.296;16.416;2023-05-19T04:12:37;13.00;70.90
75927;DHT22;64605;48.296;16.416;2023-05-19T04:15:03;13.20;70.60
75927;DHT22;64605;48.296;16.416;2023-05-19T04:17:30;13.40;70.40
75927;DHT22;64605;48.296;16.416;2023-05-19T04:19:55;13.50;69.80
75927;DHT22;64605;48.296;16.416;2023-05-19T04:22:21;13.50;69.20
75927;DHT22;64605;48.296;16.416;2023-05-19T04:24:47;13.50;67.90
75927;DHT22;64605;48.296;16.416;2023-05-19T04:27:13;13.60;68.70
75927;DHT22;64605;48.296;16.416;2023-05-19T04:29:40;13.60;68.60
75927;DHT22;64605;48.296;16.416;2023-05-19T04:32:06;13.60;68.30
75927;DHT22;64605;48.296;16.416;2023-05-19T04:34:35;13.60;67.50
75927;DHT22;64605;48.296;16.416;2023-05-19T04:37:07;13.60;67.20
75927;DHT22;64605;48.296;16.416;2023-05-19T04:39:34;13.70;67.50
75927;DHT22;64605;48.296;16.416;2023-05-19T04:42:03;14.00;67.70
75927;DHT22;64605;48.296;16.416;2023-05-19T04:44:28;14.30;67.10
75927;DHT22;64605;48.296;16.416;2023-05-19T04:46:55;14.50;66.00
75927;DHT22;64605;48.296;16.416;2023-05-19T04:49:22;14.60;65.90
75927;DHT22;64605;48.296;16.416;2023-05-19T04:51:48;14.80;64.70
75927;DHT22;64605;48.296;16.416;2023-05-19T04:54:15;14.80;64.20
75927;DHT22;64605;48.296;16.416;2023-05-19T04:56:41;14.70;63.20
75927;DHT22;64605;48.296;16.416;2023-05-19T04:59:08;14.90;64.40
75927;DHT22;64605;48.296;16.416;2023-05-19T05:01:34;15.10;62.90
75927;DHT22;64605;48.296;16.416;2023-05-19T05:04:05;15.50;63.50
75927;DHT22;64605;48.296;16.416;2023-05-19T05:06:31;15.80;62.50
75927;DHT22;64605;48.296;16.416;2023-05-19T05:08:56;16.30;62.20
75927;DHT22;64605;48.296;16.416;2023-05-19T05:11:22;16.60;60.80
75927;DHT22;64605;48.296;16.416;2023-05-19T05:13:48;16.80;59.40
75927;DHT22;64605;48.296;16.416;2023-05-19T05:16:14;16.90;57.60
75927;DHT22;64605;48.296;16.416;2023-05-19T05:18:40;17.10;58.00
75927;DHT22;64605;48.296;16.416;2023-05-19T05:21:06;17.40;56.30
75927;DHT22;64605;48.296;16.416;2023-05-19T05:23:32;17.50;55.80
75927;DHT22;64605;48.296;16.416;2023-05-19T05:25:58;17.80;55.80
75927;DHT22;64605;48.296;16.416;2023-05-19T05:28:24;17.80;55.30
75927;DHT22;64605;48.296;16.416;2023-05-19T05:30:50;18.00;54.70
75927;DHT22;64605;48.296;16.416;2023-05-19T05:33:15;18.20;54.30
75927;DHT22;64605;48.296;16.416;2023-05-19T05:35:42;18.30;54.10
75927;DHT22;64605;48.296;16.416;2023-05-19T05:38:08;18.30;54.00
75927;DHT22;64605;48.296;16.416;2023-05-19T05:40:35;18.30;52.20
75927;DHT22;64605;48.296;16.416;2023-05-19T05:43:01;18.20;52.00
75927;DHT22;64605;48.296;16.416;2023-05-19T05:45:26;18.50;53.20
75927;DHT22;64605;48.296;16.416;2023-05-19T05:47:53;18.80;51.90
75927;DHT22;64605;48.296;16.416;2023-05-19T05:50:18;19.00;50.60
75927;DHT22;64605;48.296;16.416;2023-05-19T05:52:47;18.80;50.50
75927;DHT22;64605;48.296;16.416;2023-05-19T05:55:14;18.80;50.10
75927;DHT22;64605;48.296;16.416;2023-05-19T05:57:41;18.60;50.80
75927;DHT22;64605;48.296;16.416;2023-05-19T06:00:08;18.70;51.50
75927;DHT22;64605;48.296;16.416;2023-05-19T06:02:44;19.20;51.90
75927;DHT22;64605;48.296;16.416;2023-05-19T06:05:13;19.70;50.70
75927;DHT22;64605;48.296;16.416;2023-05-19T06:07:42;20.00;49.00
75927;DHT22;64605;48.296;16.416;2023-05-19T06:10:08;19.80;48.90
75927;DHT22;64605;48.296;16.416;2023-05-19T06:12:36;20.10;48.50
75927;DHT22;64605;48.296;16.416;2023-05-19T06:15:07;20.40;46.90
75927;DHT22;64605;48.296;16.416;2023-05-19T06:17:33;21.00;47.50
75927;DHT22;64605;48.296;16.416;2023-05-19T06:20:01;21.60;45.90
75927;DHT22;64605;48.296;16.416;2023-05-19T06:22:26;21.80;44.70
75927;DHT22;64605;48.296;16.416;2023-05-19T06:24:52;21.70;44.80
75927;DHT22;64605;48.296;16.416;2023-05-19T06:27:18;21.70;44.80
75927;DHT22;64605;48.296;16.416;2023-05-19T06:29:44;21.80;45.40
75927;DHT22;64605;48.296;16.416;2023-05-19T06:32:10;21.90;44.90
75927;DHT22;64605;48.296;16.416;2023-05-19T06:34:35;22.00;44.30
75927;DHT22;64605;48.296;16.416;2023-05-19T06:37:02;22.10;44.00
75927;DHT22;64605;48.296;16.416;2023-05-19T06:39:28;22.10;44.10
75927;DHT22;64605;48.296;16.416;2023-05-19T06:41:54;22.00;43.30
75927;DHT22;64605;48.296;16.416;2023-05-19T06:44:21;22.10;44.10
75927;DHT22;64605;48.296;16.416;2023-05-19T06:46:46;22.30;43.40
75927;DHT22;64605;48.296;16.416;2023-05-19T06:49:12;22.30;44.00
75927;DHT22;64605;48.296;16.416;2023-05-19T06:51:38;22.60;42.30
75927;DHT22;64605;48.296;16.416;2023-05-19T06:54:04;22.40;41.90
75927;DHT22;64605;48.296;16.416;2023-05-19T06:56:29;22.60;41.70
75927;DHT22;64605;48.296;16.416;2023-05-19T06:58:55;22.00;42.40
75927;DHT22;64605;48.296;16.416;2023-05-19T07:01:21;22.70;43.00
75927;DHT22;64605;48.296;16.416;2023-05-19T07:03:46;23.00;41.90
75927;DHT22;64605;48.296;16.416;2023-05-19T07:06:12;23.40;41.50
75927;DHT22;64605;48.296;16.416;2023-05-19T07:08:38;23.50;40.00
75927;DHT22;64605;48.296;16.416;2023-05-19T07:11:03;22.50;39.80
75927;DHT22;64605;48.296;16.416;2023-05-19T07:13:29;22.40;41.30
75927;DHT22;64605;48.296;16.416;2023-05-19T07:15:55;22.40;40.80
75927;DHT22;64605;48.296;16.416;2023-05-19T07:18:21;22.40;41.30
75927;DHT22;64605;48.296;16.416;2023-05-19T07:20:47;22.30;43.20
75927;DHT22;64605;48.296;16.416;2023-05-19T07:23:12;21.90;44.20
75927;DHT22;64605;48.296;16.416;2023-05-19T07:25:38;21.60;44.00
75927;DHT22;64605;48.296;16.416;2023-05-19T07:28:04;21.90;46.10
75927;DHT22;64605;48.296;16.416;2023-05-19T07:30:29;22.00;45.30
75927;DHT22;64605;48.296;16.416;2023-05-19T07:32:55;22.20;43.50
75927;DHT22;64605;48.296;16.416;2023-05-19T07:35:21;22.00;43.60
75927;DHT22;64605;48.296;16.416;2023-05-19T07:37:50;21.90;44.10
75927;DHT22;64605;48.296;16.416;2023-05-19T07:40:17;21.60;43.80
75927;DHT22;64605;48.296;16.416;2023-05-19T07:42:42;21.60;43.90
75927;DHT22;64605;48.296;16.416;2023-05-19T07:45:09;21.60;43.30
75927;DHT22;64605;48.296;16.416;2023-05-19T07:47:36;21.70;44.10
75927;DHT22;64605;48.296;16.416;2023-05-19T07:50:02;21.50;45.80
75927;DHT22;64605;48.296;16.416;2023-05-19T07:52:28;21.50;45.60
75927;DHT22;64605;48.296;16.416;2023-05-19T07:54:53;21.80;46.70
75927;DHT22;64605;48.296;16.416;2023-05-19T07:57:19;22.00;47.10
75927;DHT22;64605;48.296;16.416;2023-05-19T07:59:45;21.90;45.50
75927;DHT22;64605;48.296;16.416;2023-05-19T08:02:10;22.00;45.70
75927;DHT22;64605;48.296;16.416;2023-05-19T08:04:36;22.00;45.90
75927;DHT22;64605;48.296;16.416;2023-05-19T08:07:02;22.20;44.50
75927;DHT22;64605;48.296;16.416;2023-05-19T08:09:28;22.50;43.20
75927;DHT22;64605;48.296;16.416;2023-05-19T08:11:53;22.70;44.20
75927;DHT22;64605;48.296;16.416;2023-05-19T08:14:19;23.10;43.70
75927;DHT22;64605;48.296;16.416;2023-05-19T08:16:47;23.00;41.10
75927;DHT22;64605;48.296;16.416;2023-05-19T08:19:13;22.90;41.00
75927;DHT22;64605;48.296;16.416;2023-05-19T08:21:39;22.80;41.30
75927;DHT22;64605;48.296;16.416;2023-05-19T08:24:07;22.80;43.30
75927;DHT22;64605;48.296;16.416;2023-05-19T08:26:33;23.00;43.00
75927;DHT22;64605;48.296;16.416;2023-05-19T08:28:58;23.40;42.90
75927;DHT22;64605;48.296;16.416;2023-05-19T08:31:24;23.60;41.90
75927;DHT22;64605;48.296;16.416;2023-05-19T08:33:50;23.80;42.70
75927;DHT22;64605;48.296;16.416;2023-05-19T08:36:16;24.00;42.60
75927;DHT22;64605;48.296;16.416;2023-05-19T08:38:42;24.20;41.80
75927;DHT22;64605;48.296;16.416;2023-05-19T08:41:07;24.40;40.10
75927;DHT22;64605;48.296;16.416;2023-05-19T08:43:33;24.40;39.50
75927;DHT22;64605;48.296;16.416;2023-05-19T08:45:59;24.50;40.50
75927;DHT22;64605;48.296;16.416;2023-05-19T08:48:28;25.40;39.00
75927;DHT22;64605;48.296;16.416;2023-05-19T08:51:21;25.80;37.20
75927;DHT22;64605;48.296;16.416;2023-05-19T08:53:52;25.90;37.10
75927;DHT22;64605;48.296;16.416;2023-05-19T08:56:22;26.10;36.60
75927;DHT22;64605;48.296;16.416;2023-05-19T08:58:50;25.90;36.50
75927;DHT22;64605;48.296;16.416;2023-05-19T09:01:16;25.60;36.20
75927;DHT22;64605;48.296;16.416;2023-05-19T09:03:46;25.10;37.10
75927;DHT22;64605;48.296;16.416;2023-05-19T09:06:14;24.90;38.80
75927;DHT22;64605;48.296;16.416;2023-05-19T09:08:40;25.00;39.30
75927;DHT22;64605;48.296;16.416;2023-05-19T09:11:07;24.80;38.10
75927;DHT22;64605;48.296;16.416;2023-05-19T09:13:33;24.20;39.60
75927;DHT22;64605;48.296;16.416;2023-05-19T09:15:59;24.10;40.50
75927;DHT22;64605;48.296;16.416;2023-05-19T09:18:26;24.30;42.50
75927;DHT22;64605;48.296;16.416;2023-05-19T09:20:59;24.40;39.80
75927;DHT22;64605;48.296;16.416;2023-05-19T09:23:29;24.30;38.90
75927;DHT22;64605;48.296;16.416;2023-05-19T09:25:55;23.90;40.30
75927;DHT22;64605;48.296;16.416;2023-05-19T09:28:33;24.30;39.90
75927;DHT22;64605;48.296;16.416;2023-05-19T09:31:00;24.50;40.50
75927;DHT22;64605;48.296;16.416;2023-05-19T09:33:27;24.90;39.10
75927;DHT22;64605;48.296;16.416;2023-05-19T09:35:56;25.10;38.90
75927;DHT22;64605;48.296;16.416;2023-05-19T09:38:25;25.70;38.20
75927;DHT22;64605;48.296;16.416;2023-05-19T09:40:53;26.10;37.60
75927;DHT22;64605;48.296;16.416;2023-05-19T09:43:20;26.60;37.80
75927;DHT22;64605;48.296;16.416;2023-05-19T09:45:46;27.20;37.10
75927;DHT22;64605;48.296;16.416;2023-05-19T09:48:16;28.10;35.70
75927;DHT22;64605;48.296;16.416;2023-05-19T09:50:42;29.00;34.00
75927;DHT22;64605;48.296;16.416;2023-05-19T09:53:12;29.90;32.50
75927;DHT22;64605;48.296;16.416;2023-05-19T09:55:39;30.70;31.40
75927;DHT22;64605;48.296;16.416;2023-05-19T09:58:05;31.60;30.00
75927;DHT22;64605;48.296;16.416;2023-05-19T10:00:33;31.50;29.60
75927;DHT22;64605;48.296;16.416;2023-05-19T10:02:59;30.80;29.70
75927;DHT22;64605;48.296;16.416;2023-05-19T10:05:26;31.20;28.60
75927;DHT22;64605;48.296;16.416;2023-05-19T10:07:53;31.60;28.60
75927;DHT22;64605;48.296;16.416;2023-05-19T10:10:20;32.40;28.30
75927;DHT22;64605;48.296;16.416;2023-05-19T10:12:48;33.60;27.20
75927;DHT22;64605;48.296;16.416;2023-05-19T10:15:15;33.80;26.70
75927;DHT22;64605;48.296;16.416;2023-05-19T10:17:42;33.70;27.30
75927;DHT22;64605;48.296;16.416;2023-05-19T10:20:10;33.80;27.30
75927;DHT22;64605;48.296;16.416;2023-05-19T10:22:37;34.60;26.20
75927;DHT22;64605;48.296;16.416;2023-05-19T10:25:04;35.30;25.40
75927;DHT22;64605;48.296;16.416;2023-05-19T10:27:33;35.50;24.60
75927;DHT22;64605;48.296;16.416;2023-05-19T10:30:04;33.70;24.80
75927;DHT22;64605;48.296;16.416;2023-05-19T10:32:32;32.30;26.10
75927;DHT22;64605;48.296;16.416;2023-05-19T10:38:26;32.50;28.00
75927;DHT22;64605;48.296;16.416;2023-05-19T10:46:41;34.20;24.00
75927;DHT22;64605;48.296;16.416;2023-05-19T10:49:07;32.60;25.80
75927;DHT22;64605;48.296;16.416;2023-05-19T10:51:33;31.50;26.80
75927;DHT22;64605;48.296;16.416;2023-05-19T10:54:09;30.70;28.80
75927;DHT22;64605;48.296;16.416;2023-05-19T10:56:38;30.00;30.40
75927;DHT22;64605;48.296;16.416;2023-05-19T10:59:06;29.50;29.70
75927;DHT22;64605;48.296;16.416;2023-05-19T11:01:34;28.90;31.40
75927;DHT22;64605;48.296;16.416;2023-05-19T11:04:05;28.50;31.70
75927;DHT22;64605;48.296;16.416;2023-05-19T11:06:33;28.10;32.40
75927;DHT22;64605;48.296;16.416;2023-05-19T11:09:22;27.40;33.20
75927;DHT22;64605;48.296;16.416;2023-05-19T11:11:52;27.00;34.20
75927;DHT22;64605;48.296;16.416;2023-05-19T11:14:20;26.70;35.30
75927;DHT22;64605;48.296;16.416;2023-05-19T11:16:48;26.70;34.80
75927;DHT22;64605;48.296;16.416;2023-05-19T11:19:28;26.50;35.30
75927;DHT22;64605;48.296;16.416;2023-05-19T11:21:54;26.20;36.10
75927;DHT22;64605;48.296;16.416;2023-05-19T11:24:43;25.90;37.00
75927;DHT22;64605;48.296;16.416;2023-05-19T11:27:29;25.60;38.40
75927;DHT22;64605;48.296;16.416;2023-05-19T11:29:58;25.60;38.20
75927;DHT22;64605;48.296;16.416;2023-05-19T11:32:26;25.60;39.00
75927;DHT22;64605;48.296;16.416;2023-05-19T11:34:52;25.70;38.40
75927;DHT22;64605;48.296;16.416;2023-05-19T11:37:19;25.70;38.80
75927;DHT22;64605;48.296;16.416;2023-05-19T11:39:45;25.70;38.80
75927;DHT22;64605;48.296;16.416;2023-05-19T11:42:14;25.80;38.40
75927;DHT22;64605;48.296;16.416;2023-05-19T11:44:41;26.10;39.10
75927;DHT22;64605;48.296;16.416;2023-05-19T11:47:07;26.30;38.80
75927;DHT22;64605;48.296;16.416;2023-05-19T11:49:33;26.20;38.00
75927;DHT22;64605;48.296;16.416;2023-05-19T11:51:59;26.30;37.90
75927;DHT22;64605;48.296;16.416;2023-05-19T11:54:33;26.20;37.20
75927;DHT22;64605;48.296;16.416;2023-05-19T11:57:04;26.10;37.50
75927;DHT22;64605;48.296;16.416;2023-05-19T11:59:34;26.10;38.70
75927;DHT22;64605;48.296;16.416;2023-05-19T12:04:41;26.00;38.60
75927;DHT22;64605;48.296;16.416;2023-05-19T12:07:07;25.80;38.20
75927;DHT22;64605;48.296;16.416;2023-05-19T12:09:33;25.60;38.70
75927;DHT22;64605;48.296;16.416;2023-05-19T12:11:59;25.20;39.70
75927;DHT22;64605;48.296;16.416;2023-05-19T12:14:29;24.90;40.00
75927;DHT22;64605;48.296;16.416;2023-05-19T12:16:55;24.70;40.70
75927;DHT22;64605;48.296;16.416;2023-05-19T12:19:24;24.80;40.90
75927;DHT22;64605;48.296;16.416;2023-05-19T12:21:51;24.90;40.50
75927;DHT22;64605;48.296;16.416;2023-05-19T12:24:18;24.90;40.70
75927;DHT22;64605;48.296;16.416;2023-05-19T12:26:44;25.00;41.10
75927;DHT22;64605;48.296;16.416;2023-05-19T12:29:12;25.30;41.20
75927;DHT22;64605;48.296;16.416;2023-05-19T12:31:37;25.10;40.60
75927;DHT22;64605;48.296;16.416;2023-05-19T12:34:04;25.10;41.50
75927;DHT22;64605;48.296;16.416;2023-05-19T12:36:31;24.50;41.80
75927;DHT22;64605;48.296;16.416;2023-05-19T12:38:57;24.30;42.70
75927;DHT22;64605;48.296;16.416;2023-05-19T12:41:26;24.20;43.00
75927;DHT22;64605;48.296;16.416;2023-05-19T12:43:53;24.20;43.40
75927;DHT22;64605;48.296;16.416;2023-05-19T12:46:19;24.50;43.00
75927;DHT22;64605;48.296;16.416;2023-05-19T12:48:45;24.70;43.10
75927;DHT22;64605;48.296;16.416;2023-05-19T12:51:18;24.60;41.90
75927;DHT22;64605;48.296;16.416;2023-05-19T12:53:44;24.50;41.20
75927;DHT22;64605;48.296;16.416;2023-05-19T12:56:14;24.60;42.00
75927;DHT22;64605;48.296;16.416;2023-05-19T12:58:41;24.90;42.10
75927;DHT22;64605;48.296;16.416;2023-05-19T13:01:13;24.80;42.30
75927;DHT22;64605;48.296;16.416;2023-05-19T13:03:40;25.00;42.30
75927;DHT22;64605;48.296;16.416;2023-05-19T13:06:09;24.80;41.00
75927;DHT22;64605;48.296;16.416;2023-05-19T13:08:36;24.60;42.00
75927;DHT22;64605;48.296;16.416;2023-05-19T13:11:03;24.50;42.70
75927;DHT22;64605;48.296;16.416;2023-05-19T13:13:29;24.50;42.50
75927;DHT22;64605;48.296;16.416;2023-05-19T13:15:54;24.50;43.30
75927;DHT22;64605;48.296;16.416;2023-05-19T13:18:21;24.50;43.60
75927;DHT22;64605;48.296;16.416;2023-05-19T13:20:46;24.50;43.80
75927;DHT22;64605;48.296;16.416;2023-05-19T13:23:15;24.40;43.90
75927;DHT22;64605;48.296;16.416;2023-05-19T13:25:41;24.20;44.30
75927;DHT22;64605;48.296;16.416;2023-05-19T13:28:07;24.30;44.80
75927;DHT22;64605;48.296;16.416;2023-05-19T13:30:34;24.30;44.20
75927;DHT22;64605;48.296;16.416;2023-05-19T13:33:00;24.40;43.90
75927;DHT22;64605;48.296;16.416;2023-05-19T13:35:26;24.40;44.40
75927;DHT22;64605;48.296;16.416;2023-05-19T13:37:51;24.60;43.80
75927;DHT22;64605;48.296;16.416;2023-05-19T13:40:17;24.60;43.70
75927;DHT22;64605;48.296;16.416;2023-05-19T13:42:43;24.50;42.90
75927;DHT22;64605;48.296;16.416;2023-05-19T13:45:10;24.30;43.30
75927;DHT22;64605;48.296;16.416;2023-05-19T13:47:36;24.40;43.10
75927;DHT22;64605;48.296;16.416;2023-05-19T13:50:03;24.50;42.90
75927;DHT22;64605;48.296;16.416;2023-05-19T13:52:28;24.40;43.40
75927;DHT22;64605;48.296;16.416;2023-05-19T13:54:55;24.50;44.70
75927;DHT22;64605;48.296;16.416;2023-05-19T13:57:22;24.50;43.90
75927;DHT22;64605;48.296;16.416;2023-05-19T13:59:48;24.40;43.50
75927;DHT22;64605;48.296;16.416;2023-05-19T14:02:14;24.20;44.90
75927;DHT22;64605;48.296;16.416;2023-05-19T14:04:40;24.10;44.00
75927;DHT22;64605;48.296;16.416;2023-05-19T14:07:06;24.00;44.10
75927;DHT22;64605;48.296;16.416;2023-05-19T14:09:32;24.10;43.10
75927;DHT22;64605;48.296;16.416;2023-05-19T14:11:58;24.10;43.70
75927;DHT22;64605;48.296;16.416;2023-05-19T14:14:24;24.20;43.10
75927;DHT22;64605;48.296;16.416;2023-05-19T14:16:50;24.10;43.00
75927;DHT22;64605;48.296;16.416;2023-05-19T14:19:16;23.90;43.70
75927;DHT22;64605;48.296;16.416;2023-05-19T14:21:42;23.60;44.80
75927;DHT22;64605;48.296;16.416;2023-05-19T14:24:07;23.40;44.70
75927;DHT22;64605;48.296;16.416;2023-05-19T14:26:33;23.10;45.20
75927;DHT22;64605;48.296;16.416;2023-05-19T14:28:59;22.90;46.20
75927;DHT22;64605;48.296;16.416;2023-05-19T14:31:24;22.70;46.00
75927;DHT22;64605;48.296;16.416;2023-05-19T14:33:51;22.60;46.20
75927;DHT22;64605;48.296;16.416;2023-05-19T14:36:17;22.30;47.10
75927;DHT22;64605;48.296;16.416;2023-05-19T14:38:43;22.20;47.60
75927;DHT22;64605;48.296;16.416;2023-05-19T14:41:08;22.10;47.60
75927;DHT22;64605;48.296;16.416;2023-05-19T14:43:34;22.00;48.40
75927;DHT22;64605;48.296;16.416;2023-05-19T14:46:00;21.80;48.90
75927;DHT22;64605;48.296;16.416;2023-05-19T14:48:26;21.80;49.40
75927;DHT22;64605;48.296;16.416;2023-05-19T14:50:52;21.70;49.60
75927;DHT22;64605;48.296;16.416;2023-05-19T14:53:17;21.70;50.40
75927;DHT22;64605;48.296;16.416;2023-05-19T14:55:43;21.60;50.10
75927;DHT22;64605;48.296;16.416;2023-05-19T14:58:09;21.60;50.00
75927;DHT22;64605;48.296;16.416;2023-05-19T15:00:35;21.60;49.60
75927;DHT22;64605;48.296;16.416;2023-05-19T15:03:00;21.50;49.80
75927;DHT22;64605;48.296;16.416;2023-05-19T15:05:26;21.50;50.10
75927;DHT22;64605;48.296;16.416;2023-05-19T15:07:52;21.50;50.60
75927;DHT22;64605;48.296;16.416;2023-05-19T15:10:18;21.50;50.80
75927;DHT22;64605;48.296;16.416;2023-05-19T15:12:46;21.60;50.70
75927;DHT22;64605;48.296;16.416;2023-05-19T15:15:12;21.70;49.90
75927;DHT22;64605;48.296;16.416;2023-05-19T15:17:40;21.60;50.40
75927;DHT22;64605;48.296;16.416;2023-05-19T15:20:06;21.60;50.00
75927;DHT22;64605;48.296;16.416;2023-05-19T15:22:32;21.60;49.90
75927;DHT22;64605;48.296;16.416;2023-05-19T15:24:58;21.60;50.00
75927;DHT22;64605;48.296;16.416;2023-05-19T15:27:25;21.50;49.90
75927;DHT22;64605;48.296;16.416;2023-05-19T15:29:51;21.60;50.10
75927;DHT22;64605;48.296;16.416;2023-05-19T15:32:16;21.70;50.10
75927;DHT22;64605;48.296;16.416;2023-05-19T15:34:42;21.80;50.30
75927;DHT22;64605;48.296;16.416;2023-05-19T15:37:08;21.90;50.80
75927;DHT22;64605;48.296;16.416;2023-05-19T15:39:34;21.90;50.60
75927;DHT22;64605;48.296;16.416;2023-05-19T15:41:59;21.90;49.70
75927;DHT22;64605;48.296;16.416;2023-05-19T15:44:25;21.80;49.00